Saturday, November 22, 2014
11:39 UTC
  |  Log In   |  Register Free
Airport Search:

Shenandoah Valley Regional Airport
(KSHD)

Shenandoah Valley Regional Airport Diagram
No Airport Diagram Available

FAA data valid effective November 13, 2014 - January 08, 2015 (unless otherwise noted).

 
 
 
 
 
 
 
 
 
 
 
 
 
 

Current Aviation Weather for Shenandoah Valley Regional Airport (KSHD)

The most recent METAR observation for KSHD was updated at: 1122
METAR Summary (Translated METAR)
KSHD
221055Z AUTO 24003KT 10SM CLR M08/M12 A3046 RMK AO2 T10821120
KVBW
221055Z AUTO 00000KT 10SM CLR M09/M11 A3044 RMK AO2 T10941112
(6.9 nm NW from KSHD)
KW13
221055Z AUTO 00000KT 10SM CLR M08/M13 A3044 RMK AO1 T10801128
(11.4 nm SW from KSHD)
TAF
No TAF information found within 50 nm of KSHD
  Airport Weather Conditions for KSHD

 Current Weather at SHD
17° F
Fair
Southwest winds at 3.5 mph
SHD NOAA Radar

Pressure: 30.46 in
Humidity: 74%
Wind: Southwest at 3.5 MPH (3 KT)
Dew Point: 10.4°F
Visibility: 10.00 mi


Airport Weather Forecast for KSHD

Translated METAR and TAF for KSHD
Translated METAR for KSHD (1134 UTC 22 November 2014)
found at http://aviationweather.gov/adds/metars/
 
METAR text: KSHD 221115Z AUTO 23005KT 10SM CLR M07/M12 A3046 RMK AO2 T10711120
Conditions at: KSHD (STAUNTON/SHENAND, VA, US) observed 1115 UTC 22 November 2014
Temperature: -7.1°C (19°F)
Dewpoint: -12.0°C (10°F) [RH = 68%]
Pressure (altimeter): 30.46 inches Hg (1031.6 mb)
Winds: from the SW (230 degrees) at 6 MPH (5 knots; 2.6 m/s)
Visibility: 10 or more miles (16+ km)
Ceiling: at least 12,000 feet AGL
Clouds: sky clear below 12,000 feet AGL
Weather: automated observation with no human augmentation;
there may or may not be significant weather present at this time
Translated TAF for KSHD

There is no translated TAF available for this airport

Find All Airport Services Find A Hotel Find A Rental Car Find A Golf Course Find A Restaurant $100 Hamburger



FBO's on the Field
FBO Company Facility Photos Services Transportation Aviation Fuel Prices: Prices include tax
Catering Weather Repair Courtesy Rental Type 100LL JetA JetA+ MOGAS 8087
 
Avnet Shenandoah Valley

This FBO has not yet been rated
FS:Avfuel
Last Updated: Oct-29
Login to update fuel prices
SS:
Contact Avnet Shenandoah ValleyMore FBO Information
 
Add another FBO Facility Photos Catering Weather Repair Courtesy Rental Type 100LL JetA JetA+ MOGAS 8087
Services Transportation Aviation Fuel Prices: Prices include tax


model-print
model-print
model-print
model-print